Time;durP1;ratioP1;P1;durP2;ratioP2;P2;SDS_P1;SDS_P2;PMS_P1;PMS_P2;Temp;Humidity;BMP_temperature;BMP_pressure;BME280_temperature;BME280_humidity;BME280_pressure;Samples;Min_cycle;Max_cycle;Signal;HPM_P1;HPM_P2
2021/10/08 00:00:35;;;;;;;;;;;;;;;7.11;52.55;96768.84;4999402;28;20406;-64
2021/10/08 00:03:00;;;;;;;;;;;;;;;7.10;52.76;96768.97;5000137;28;19956;-64
2021/10/08 00:05:25;;;;;;;;;;;;;;;7.20;52.24;96764.59;4998909;28;20652;-64
2021/10/08 00:07:51;;;;;;;;;;;;;;;7.20;53.04;96761.09;4996581;28;19928;-64
2021/10/08 00:10:16;;;;;;;;;;;;;;;7.24;52.40;96759.91;5011418;28;19961;-64
2021/10/08 00:12:41;;;;;;;;;;;;;;;7.21;51.90;96760.97;4993540;28;20429;-64
2021/10/08 00:15:07;;;;;;;;;;;;;;;7.18;52.07;96771.00;4996525;28;20149;-64
2021/10/08 00:17:32;;;;;;;;;;;;;;;7.27;52.77;96763.13;4989191;28;19926;-64
2021/10/08 00:19:57;;;;;;;;;;;;;;;7.22;52.29;96759.19;4998318;28;19917;-64
2021/10/08 00:22:22;;;;;;;;;;;;;;;7.35;52.83;96759.81;4997486;28;19921;-66
2021/10/08 00:24:48;;;;;;;;;;;;;;;7.37;52.23;96752.59;4998044;28;19921;-66
2021/10/08 00:27:13;;;;;;;;;;;;;;;7.34;53.40;96750.19;4996883;28;20083;-66
2021/10/08 00:29:38;;;;;;;;;;;;;;;7.36;53.73;96755.34;5001806;28;19927;-66
2021/10/08 00:32:04;;;;;;;;;;;;;;;7.36;52.44;96753.56;5001386;28;19925;-66
2021/10/08 00:34:29;;;;;;;;;;;;;;;7.34;51.81;96752.03;4998422;28;20076;-66
2021/10/08 00:36:54;;;;;;;;;;;;;;;7.39;52.64;96753.28;4998022;28;19956;-66
2021/10/08 00:39:19;;;;;;;;;;;;;;;7.39;51.66;96757.75;4997069;28;19922;-66
2021/10/08 00:41:46;;;;;;;;;;;;;;;7.42;51.75;96757.50;4998232;28;19925;-66
2021/10/08 00:44:11;;;;;;;;;;;;;;;7.41;51.97;96761.09;4997613;28;19929;-66
2021/10/08 00:46:37;;;;;;;;;;;;;;;7.34;53.35;96759.97;4999068;28;20215;-66
2021/10/08 00:49:03;;;;;;;;;;;;;;;7.41;52.57;96756.66;5000680;28;20423;-66
2021/10/08 00:51:28;;;;;;;;;;;;;;;7.47;52.43;96760.59;4997951;28;20013;-66
2021/10/08 00:53:53;;;;;;;;;;;;;;;7.49;51.45;96766.63;5000443;28;20068;-66
2021/10/08 00:56:22;;;;;;;;;;;;;;;7.42;52.04;96760.16;4997825;28;19921;-66
2021/10/08 00:58:47;;;;;;;;;;;;;;;7.52;51.57;96754.91;4997377;28;19917;-66
2021/10/08 01:01:18;;;;;;;;;;;;;;;7.49;52.12;96752.53;4999439;28;19917;-63
2021/10/08 01:03:43;;;;;;;;;;;;;;;7.54;51.35;96751.16;4997896;28;20468;-63
2021/10/08 01:06:09;;;;;;;;;;;;;;;7.57;52.06;96752.69;4999226;28;19929;-63
2021/10/08 01:08:34;;;;;;;;;;;;;;;7.51;51.95;96751.41;5009023;28;19930;-63
2021/10/08 01:10:59;;;;;;;;;;;;;;;7.53;52.04;96754.78;4992905;28;19925;-64
2021/10/08 01:13:25;;;;;;;;;;;;;;;7.38;54.37;96761.38;5010176;28;19914;-63
2021/10/08 01:15:52;;;;;;;;;;;;;;;7.45;53.11;96751.91;4992138;28;20418;-64
2021/10/08 01:18:17;;;;;;;;;;;;;;;7.41;54.92;96758.44;4993223;28;20015;-64
2021/10/08 01:20:43;;;;;;;;;;;;;;;7.57;52.51;96755.34;4999447;28;20099;-64
2021/10/08 01:23:08;;;;;;;;;;;;;;;7.56;53.88;96763.44;4997620;28;19925;-64
2021/10/08 01:25:33;;;;;;;;;;;;;;;7.56;52.33;96753.69;4999714;28;19936;-63
2021/10/08 01:28:01;;;;;;;;;;;;;;;7.59;52.03;96761.38;4997080;28;19922;-63
2021/10/08 01:30:26;;;;;;;;;;;;;;;7.60;52.25;96765.69;4999523;28;19920;-63
2021/10/08 01:32:52;;;;;;;;;;;;;;;7.50;51.95;96757.69;4996212;28;20294;-63
2021/10/08 01:35:17;;;;;;;;;;;;;;;7.56;51.65;96764.28;4996808;28;19925;-64
2021/10/08 01:37:42;;;;;;;;;;;;;;;7.57;52.31;96759.78;4994962;28;20363;-64
2021/10/08 01:40:08;;;;;;;;;;;;;;;7.56;51.72;96761.63;4996314;28;19928;-64
2021/10/08 01:42:33;;;;;;;;;;;;;;;7.52;52.62;96746.97;4993921;28;20036;-64
2021/10/08 01:45:01;;;;;;;;;;;;;;;7.53;51.27;96756.59;4996216;28;19910;-64
2021/10/08 01:47:27;;;;;;;;;;;;;;;7.50;51.51;96762.13;4995216;28;20371;-64
2021/10/08 01:49:52;;;;;;;;;;;;;;;7.59;50.98;96763.16;5000496;28;19918;-64
2021/10/08 01:52:17;;;;;;;;;;;;;;;7.50;51.86;96762.13;4995151;28;19924;-65
2021/10/08 01:54:43;;;;;;;;;;;;;;;7.31;52.87;96755.75;4996507;28;19922;-65
2021/10/08 01:57:08;;;;;;;;;;;;;;;7.34;53.76;96760.78;4995676;28;20005;-65
2021/10/08 01:59:33;;;;;;;;;;;;;;;7.41;52.93;96750.50;4996658;28;20294;-65
2021/10/08 02:01:59;;;;;;;;;;;;;;;7.45;52.28;96749.28;4995369;28;19921;-65
2021/10/08 02:04:24;;;;;;;;;;;;;;;7.34;52.15;96757.31;4999967;28;19921;-65
2021/10/08 02:06:50;;;;;;;;;;;;;;;7.26;52.73;96757.94;4994430;28;19922;-65
2021/10/08 02:09:15;;;;;;;;;;;;;;;7.24;52.51;96759.91;4994984;28;19925;-65
2021/10/08 02:11:40;;;;;;;;;;;;;;;7.28;53.32;96756.84;4996561;28;19917;-65
2021/10/08 02:14:05;;;;;;;;;;;;;;;7.32;53.02;96756.59;4998062;28;19918;-65
2021/10/08 02:16:31;;;;;;;;;;;;;;;7.27;52.93;96749.03;4989616;28;19929;-65
2021/10/08 02:18:56;;;;;;;;;;;;;;;7.26;52.04;96753.50;4997219;28;20298;-65
2021/10/08 02:21:22;;;;;;;;;;;;;;;7.35;52.22;96749.22;4999045;28;20001;-65
2021/10/08 02:23:47;;;;;;;;;;;;;;;7.34;53.29;96749.38;5001053;28;19929;-65
2021/10/08 02:26:13;;;;;;;;;;;;;;;7.26;52.85;96748.19;4998950;28;19922;-65
2021/10/08 02:28:38;;;;;;;;;;;;;;;7.24;52.54;96744.81;4996439;28;20179;-65
2021/10/08 02:31:03;;;;;;;;;;;;;;;7.21;52.68;96753.03;4993183;28;19918;-64
2021/10/08 02:33:28;;;;;;;;;;;;;;;7.07;52.58;96748.06;4995291;28;20387;-64
2021/10/08 02:35:54;;;;;;;;;;;;;;;7.09;52.61;96746.97;4992601;28;20005;-64
2021/10/08 02:38:19;;;;;;;;;;;;;;;7.07;53.79;96746.22;4991669;28;19918;-64
2021/10/08 02:40:44;;;;;;;;;;;;;;;6.97;55.57;96750.63;4992190;28;19973;-64
2021/10/08 02:43:10;;;;;;;;;;;;;;;7.02;55.85;96740.50;4990932;28;20440;-65
2021/10/08 02:45:35;;;;;;;;;;;;;;;7.07;55.16;96742.78;4989676;28;19964;-65
2021/10/08 02:48:01;;;;;;;;;;;;;;;7.07;56.00;96746.22;4989227;28;19922;-65
2021/10/08 02:50:26;;;;;;;;;;;;;;;6.93;54.36;96742.09;4994399;28;20118;-65
2021/10/08 02:52:52;;;;;;;;;;;;;;;6.84;57.48;96743.69;4990785;28;20350;-65
2021/10/08 02:55:17;;;;;;;;;;;;;;;6.89;54.67;96740.66;4990500;28;20390;-65
2021/10/08 02:57:42;;;;;;;;;;;;;;;6.94;55.16;96743.75;4991393;28;20410;-65
2021/10/08 03:00:08;;;;;;;;;;;;;;;6.81;55.00;96745.75;4990089;28;20102;-65
2021/10/08 03:02:33;;;;;;;;;;;;;;;6.73;55.49;96744.56;4991227;28;19917;-65
2021/10/08 03:04:58;;;;;;;;;;;;;;;6.74;56.91;96746.25;4997734;28;19944;-65
2021/10/08 03:07:24;;;;;;;;;;;;;;;6.83;57.79;96747.31;5004479;28;19924;-65
2021/10/08 03:09:49;;;;;;;;;;;;;;;6.81;57.87;96751.91;5004567;28;19979;-65
2021/10/08 03:12:14;;;;;;;;;;;;;;;6.82;55.69;96744.78;5004097;28;20346;-65
2021/10/08 03:14:40;;;;;;;;;;;;;;;6.91;54.89;96744.03;5001343;28;19924;-65
2021/10/08 03:17:05;;;;;;;;;;;;;;;6.85;52.80;96745.38;5001126;28;19929;-65
2021/10/08 03:19:30;;;;;;;;;;;;;;;6.97;53.43;96745.34;5004277;28;20102;-65
2021/10/08 03:21:55;;;;;;;;;;;;;;;7.01;52.74;96749.41;5004760;28;20314;-65
2021/10/08 03:24:20;;;;;;;;;;;;;;;7.01;52.30;96750.22;5003769;28;19922;-65
2021/10/08 03:26:46;;;;;;;;;;;;;;;6.95;52.29;96745.47;5004075;28;19941;-66
2021/10/08 03:29:11;;;;;;;;;;;;;;;6.95;55.26;96753.41;4995749;28;19966;-66
2021/10/08 03:31:36;;;;;;;;;;;;;;;6.95;54.76;96750.75;4993823;28;20374;-66
2021/10/08 03:34:02;;;;;;;;;;;;;;;6.90;56.48;96747.63;4990924;28;20148;-66
2021/10/08 03:36:41;;;;;;;;;;;;;;;6.83;57.38;96747.31;4993492;28;19921;-66
2021/10/08 03:39:06;;;;;;;;;;;;;;;6.75;52.85;96745.31;4991092;28;19973;-67
2021/10/08 03:41:32;;;;;;;;;;;;;;;6.77;53.98;96745.19;4992158;28;19922;-67
2021/10/08 03:43:57;;;;;;;;;;;;;;;6.80;55.02;96741.44;5006277;28;19918;-67
2021/10/08 03:46:26;;;;;;;;;;;;;;;6.87;55.74;96748.72;4992320;28;20023;-67
2021/10/08 03:51:46;;;;;;;;;;;;;;;6.95;56.55;96753.41;4994735;28;19918;-67
2021/10/08 03:54:12;;;;;;;;;;;;;;;6.85;56.25;96755.97;5007143;28;20302;-67
2021/10/08 03:56:37;;;;;;;;;;;;;;;6.89;55.55;96746.81;4989143;28;20361;-67
2021/10/08 03:59:02;;;;;;;;;;;;;;;6.99;56.35;96751.34;4993761;28;20354;-67
2021/10/08 04:01:28;;;;;;;;;;;;;;;7.04;54.47;96754.44;4989410;28;19953;-67
2021/10/08 04:03:53;;;;;;;;;;;;;;;7.07;55.03;96753.34;4993627;28;19925;-67
2021/10/08 04:06:18;;;;;;;;;;;;;;;7.04;52.87;96753.59;4991994;28;20323;-67
2021/10/08 04:08:44;;;;;;;;;;;;;;;6.98;52.47;96754.97;5000127;28;19921;-67
2021/10/08 04:11:09;;;;;;;;;;;;;;;6.94;53.37;96754.34;4997453;28;19922;-67
2021/10/08 04:13:34;;;;;;;;;;;;;;;6.91;52.68;96753.78;4999421;28;19926;-67
2021/10/08 04:16:00;;;;;;;;;;;;;;;6.83;52.50;96759.72;4993645;28;19934;-67
2021/10/08 04:18:25;;;;;;;;;;;;;;;6.67;53.97;96753.03;5000409;28;19921;-67
2021/10/08 04:20:50;;;;;;;;;;;;;;;6.69;53.97;96753.75;4997214;28;20360;-67
2021/10/08 04:23:16;;;;;;;;;;;;;;;6.75;53.91;96758.53;5000556;28;19972;-65
2021/10/08 04:25:41;;;;;;;;;;;;;;;6.88;54.77;96760.16;4996758;28;20134;-65
2021/10/08 04:28:06;;;;;;;;;;;;;;;6.88;54.22;96754.88;5000460;28;20231;-65
2021/10/08 04:30:31;;;;;;;;;;;;;;;6.91;52.28;96754.63;4996062;28;19972;-65
2021/10/08 04:32:57;;;;;;;;;;;;;;;6.96;52.24;96767.47;5007727;28;19960;-65
2021/10/08 04:35:22;;;;;;;;;;;;;;;6.94;52.73;96769.41;4995805;28;20478;-65
2021/10/08 04:37:47;;;;;;;;;;;;;;;6.96;52.28;96765.66;5000106;28;19918;-66
2021/10/08 04:40:13;;;;;;;;;;;;;;;6.93;52.73;96768.56;4994902;28;19928;-66
2021/10/08 04:42:38;;;;;;;;;;;;;;;6.92;51.22;96768.69;4999307;28;19913;-67
2021/10/08 04:45:03;;;;;;;;;;;;;;;6.88;51.04;96773.41;4994816;28;20468;-67
2021/10/08 04:47:29;;;;;;;;;;;;;;;6.87;51.26;96771.75;4998394;28;19917;-67
2021/10/08 04:49:54;;;;;;;;;;;;;;;6.89;52.08;96775.09;4994017;28;19914;-67
2021/10/08 04:52:19;;;;;;;;;;;;;;;6.88;51.66;96781.34;4998596;28;20705;-67
2021/10/08 04:54:44;;;;;;;;;;;;;;;6.84;51.71;96779.94;4994050;28;19980;-67
2021/10/08 04:57:10;;;;;;;;;;;;;;;6.84;53.00;96779.94;4999041;28;20358;-67
2021/10/08 04:59:35;;;;;;;;;;;;;;;6.79;50.91;96772.34;4993468;28;20189;-67
2021/10/08 05:02:00;;;;;;;;;;;;;;;6.84;51.31;96779.94;4992148;28;20413;-67
2021/10/08 05:04:26;;;;;;;;;;;;;;;6.83;51.44;96773.78;4991880;28;19922;-67
2021/10/08 05:06:51;;;;;;;;;;;;;;;6.78;51.17;96773.31;4997338;28;20003;-67
2021/10/08 05:09:16;;;;;;;;;;;;;;;6.76;51.22;96773.44;4993156;28;20117;-67
2021/10/08 05:11:41;;;;;;;;;;;;;;;6.74;51.17;96775.38;4997553;28;20414;-67
2021/10/08 05:14:07;;;;;;;;;;;;;;;6.73;51.88;96773.69;4997121;28;20029;-67
2021/10/08 05:16:32;;;;;;;;;;;;;;;6.71;51.26;96775.63;4997720;28;19926;-67
2021/10/08 05:18:57;;;;;;;;;;;;;;;6.71;51.46;96765.06;4998830;28;19925;-67
2021/10/08 05:21:23;;;;;;;;;;;;;;;6.56;51.65;96777.69;4983629;28;19976;-67
2021/10/08 05:23:48;;;;;;;;;;;;;;;6.52;52.13;96780.75;4995296;28;20298;-67
2021/10/08 05:26:13;;;;;;;;;;;;;;;6.53;52.63;96770.00;5001822;28;19918;-67
2021/10/08 05:28:38;;;;;;;;;;;;;;;6.49;53.89;96779.16;4996349;28;19929;-67
2021/10/08 05:31:05;;;;;;;;;;;;;;;6.33;53.98;96779.53;5001183;28;19917;-67
2021/10/08 05:33:30;;;;;;;;;;;;;;;6.31;53.24;96779.66;5001294;28;19914;-67
2021/10/08 05:35:56;;;;;;;;;;;;;;;6.33;53.16;96783.00;5001343;28;19928;-67
2021/10/08 05:38:21;;;;;;;;;;;;;;;6.41;54.19;96781.56;4991678;28;20151;-67
2021/10/08 05:40:47;;;;;;;;;;;;;;;6.40;52.77;96785.16;4997744;28;19929;-67
2021/10/08 05:43:13;;;;;;;;;;;;;;;6.50;53.59;96791.44;5008074;28;19979;-67
2021/10/08 05:45:38;;;;;;;;;;;;;;;6.44;53.01;96782.16;5018459;28;20343;-67
2021/10/08 05:48:03;;;;;;;;;;;;;;;6.39;52.34;96781.66;5033964;28;19997;-67
2021/10/08 05:50:29;;;;;;;;;;;;;;;6.33;53.48;96783.00;5021926;28;19960;-67
2021/10/08 05:52:54;;;;;;;;;;;;;;;6.37;52.80;96781.78;5019795;28;20378;-68
2021/10/08 05:55:22;;;;;;;;;;;;;;;6.43;55.11;96784.94;5021583;28;19967;-67
2021/10/08 05:57:47;;;;;;;;;;;;;;;6.12;53.79;96790.84;5021963;28;19925;-67
2021/10/08 06:00:12;;;;;;;;;;;;;;;6.21;54.22;96779.53;5027308;28;19928;-67
2021/10/08 06:02:38;;;;;;;;;;;;;;;6.31;54.33;96784.09;5009477;28;19933;-64
2021/10/08 06:05:03;;;;;;;;;;;;;;;6.55;54.94;96780.47;5021737;28;20344;-64
2021/10/08 06:07:28;;;;;;;;;;;;;;;6.58;53.85;96786.38;5013115;28;19967;-64
2021/10/08 06:09:54;;;;;;;;;;;;;;;6.60;54.21;96778.31;5002116;28;19922;-64
2021/10/08 06:12:19;;;;;;;;;;;;;;;6.81;53.18;96781.03;5001745;28;20019;-64
2021/10/08 06:14:44;;;;;;;;;;;;;;;6.90;53.60;96787.34;5001854;28;19926;-64
2021/10/08 06:17:09;;;;;;;;;;;;;;;7.06;54.19;96786.09;5021591;28;19937;-64
2021/10/08 06:19:35;;;;;;;;;;;;;;;7.10;52.84;96792.81;5021383;28;19925;-65
2021/10/08 06:22:00;;;;;;;;;;;;;;;7.23;52.96;96796.13;5021759;28;19987;-65
2021/10/08 06:24:25;;;;;;;;;;;;;;;7.41;52.48;96793.75;5021032;28;19935;-65
2021/10/08 06:26:51;;;;;;;;;;;;;;;7.48;52.03;96793.25;5020050;28;20560;-64
2021/10/08 06:29:16;;;;;;;;;;;;;;;7.66;52.14;96801.44;5021600;28;19920;-64
2021/10/08 06:31:41;;;;;;;;;;;;;;;7.66;52.79;96802.25;5019799;28;20310;-64
2021/10/08 06:34:06;;;;;;;;;;;;;;;7.70;54.63;96800.22;5021801;28;19993;-64
2021/10/08 06:36:32;;;;;;;;;;;;;;;7.92;52.50;96803.69;5017822;28;20051;-64
2021/10/08 06:38:57;;;;;;;;;;;;;;;7.92;52.67;96804.53;5020958;28;19925;-64
2021/10/08 06:41:22;;;;;;;;;;;;;;;8.07;53.87;96809.50;5020908;28;19925;-64
2021/10/08 06:43:48;;;;;;;;;;;;;;;8.08;53.83;96810.31;5020443;28;20165;-64
2021/10/08 06:46:13;;;;;;;;;;;;;;;8.27;51.97;96809.59;5020803;28;19921;-64
2021/10/08 06:48:38;;;;;;;;;;;;;;;8.37;51.10;96804.31;5020734;28;19967;-64
2021/10/08 06:51:05;;;;;;;;;;;;;;;8.36;51.49;96802.63;5020688;28;19946;-64
2021/10/08 06:53:30;;;;;;;;;;;;;;;8.65;50.92;96809.81;5020349;28;19964;-64
2021/10/08 06:55:55;;;;;;;;;;;;;;;8.79;50.50;96809.44;5020540;28;20406;-64
2021/10/08 06:58:20;;;;;;;;;;;;;;;8.73;53.26;96809.97;5020465;28;19925;-65
2021/10/08 07:00:46;;;;;;;;;;;;;;;8.89;50.03;96798.81;5019701;28;19968;-65
2021/10/08 07:03:11;;;;;;;;;;;;;;;9.01;49.74;96807.53;5018049;28;19925;-65
2021/10/08 07:05:36;;;;;;;;;;;;;;;9.23;50.76;96810.03;5018520;28;19932;-65
2021/10/08 07:08:02;;;;;;;;;;;;;;;9.37;49.57;96812.28;5019378;28;19998;-65
2021/10/08 07:10:27;;;;;;;;;;;;;;;9.43;49.12;96818.84;5019338;28;19921;-65
2021/10/08 07:12:53;;;;;;;;;;;;;;;9.56;48.60;96811.41;5019406;28;20004;-65
2021/10/08 07:15:18;;;;;;;;;;;;;;;9.70;50.19;96822.59;5018706;28;19994;-65
2021/10/08 07:17:51;;;;;;;;;;;;;;;9.99;48.70;96811.03;5018175;28;19925;-66
2021/10/08 07:20:20;;;;;;;;;;;;;;;10.16;49.54;96816.63;5011390;28;19929;-66
2021/10/08 07:22:45;;;;;;;;;;;;;;;10.28;48.90;96817.28;5019088;28;20704;-66
2021/10/08 07:25:10;;;;;;;;;;;;;;;10.32;49.32;96810.69;5019699;28;19932;-66
2021/10/08 07:27:36;;;;;;;;;;;;;;;10.46;49.44;96812.00;5018405;28;19929;-66
2021/10/08 07:30:01;;;;;;;;;;;;;;;10.29;49.80;96821.59;5016650;28;19975;-66
2021/10/08 07:32:28;;;;;;;;;;;;;;;10.42;48.95;96819.47;5015431;28;19979;-66
2021/10/08 07:34:53;;;;;;;;;;;;;;;10.86;47.63;96813.47;5018835;28;20020;-66
2021/10/08 07:37:19;;;;;;;;;;;;;;;11.06;47.51;96818.66;5027980;28;20011;-66
2021/10/08 07:39:44;;;;;;;;;;;;;;;11.22;46.61;96812.66;5019357;28;19925;-66
2021/10/08 07:42:09;;;;;;;;;;;;;;;11.37;46.11;96810.31;5020208;28;20028;-66
2021/10/08 07:44:35;;;;;;;;;;;;;;;11.44;46.30;96823.00;5018065;28;19934;-67
2021/10/08 07:47:00;;;;;;;;;;;;;;;11.36;46.85;96815.78;5019693;28;19921;-67
2021/10/08 07:49:25;;;;;;;;;;;;;;;11.42;46.48;96822.34;5019830;28;20587;-67
2021/10/08 07:51:50;;;;;;;;;;;;;;;11.71;45.96;96822.06;5019136;28;20420;-67
2021/10/08 07:54:16;;;;;;;;;;;;;;;11.99;45.87;96821.91;5019966;28;19929;-67
2021/10/08 07:56:41;;;;;;;;;;;;;;;12.16;45.05;96822.03;5019562;28;19921;-67
2021/10/08 07:59:06;;;;;;;;;;;;;;;12.32;44.36;96826.63;5018535;28;20389;-67
2021/10/08 08:01:32;;;;;;;;;;;;;;;12.48;43.07;96820.50;5013951;28;20461;-67
2021/10/08 08:03:57;;;;;;;;;;;;;;;12.61;43.71;96827.25;5014204;28;19921;-67
2021/10/08 08:06:22;;;;;;;;;;;;;;;12.70;43.34;96825.44;5019475;28;19921;-67
2021/10/08 08:08:48;;;;;;;;;;;;;;;12.88;43.73;96823.50;5019549;28;20026;-67
2021/10/08 08:11:13;;;;;;;;;;;;;;;13.00;43.53;96820.53;5022321;28;20290;-67
2021/10/08 08:13:38;;;;;;;;;;;;;;;13.10;43.80;96826.59;5019046;28;21116;-67
2021/10/08 08:16:04;;;;;;;;;;;;;;;13.30;42.92;96831.63;5021918;28;19925;-67
2021/10/08 08:18:29;;;;;;;;;;;;;;;13.37;42.50;96827.28;5015789;28;19929;-67
2021/10/08 08:20:54;;;;;;;;;;;;;;;13.41;42.54;96835.81;5023293;28;20464;-81
2021/10/08 08:23:19;;;;;;;;;;;;;;;13.50;43.16;96834.78;5008857;28;19945;-80
2021/10/08 08:25:45;;;;;;;;;;;;;;;12.99;42.76;96835.72;5027630;28;19921;-81
2021/10/08 08:28:10;;;;;;;;;;;;;;;13.32;42.61;96842.97;5026166;28;19917;-81
2021/10/08 08:30:40;;;;;;;;;;;;;;;13.55;41.99;96837.81;5026211;28;20023;-81
2021/10/08 08:33:05;;;;;;;;;;;;;;;13.65;41.47;96834.97;5026661;28;19943;-80
2021/10/08 08:35:31;;;;;;;;;;;;;;;13.80;41.47;96836.94;5026026;28;19921;-81
2021/10/08 08:37:56;;;;;;;;;;;;;;;13.74;41.80;96840.31;5028362;28;20210;-81
2021/10/08 08:40:22;;;;;;;;;;;;;;;13.81;41.72;96842.13;5026795;28;19921;-81
2021/10/08 08:42:50;;;;;;;;;;;;;;;13.70;40.96;96848.69;5027407;28;19925;-81
2021/10/08 08:45:16;;;;;;;;;;;;;;;13.90;41.38;96845.69;5026696;28;19913;-80
2021/10/08 08:47:41;;;;;;;;;;;;;;;13.37;41.85;96839.81;5008343;28;19928;-76
2021/10/08 08:50:06;;;;;;;;;;;;;;;13.88;41.06;96841.47;5023237;28;19928;-77
2021/10/08 08:52:32;;;;;;;;;;;;;;;13.91;41.41;96842.00;5020931;28;19921;-77
2021/10/08 08:54:57;;;;;;;;;;;;;;;13.80;41.03;96842.31;5021566;28;19978;-77
2021/10/08 08:57:22;;;;;;;;;;;;;;;13.99;40.37;96833.13;5023181;28;20358;-76
2021/10/08 09:00:03;;;;;;;;;;;;;;;14.12;40.83;96829.94;5021195;28;19925;-77
2021/10/08 09:02:28;;;;;;;;;;;;;;;14.11;41.50;96832.78;5019957;28;19940;-79
2021/10/08 09:04:54;;;;;;;;;;;;;;;13.74;40.89;96833.13;5021253;28;19921;-77
2021/10/08 09:07:19;;;;;;;;;;;;;;;13.31;41.13;96827.94;5021014;28;19921;-77
2021/10/08 09:09:44;;;;;;;;;;;;;;;14.08;40.29;96833.94;5021349;28;19959;-77
2021/10/08 09:12:10;;;;;;;;;;;;;;;13.58;40.93;96828.63;5024018;28;20297;-79
2021/10/08 09:14:35;;;;;;;;;;;;;;;13.83;40.27;96832.13;5022869;28;20396;-78
2021/10/08 09:17:04;;;;;;;;;;;;;;;14.18;39.54;96823.88;5016512;28;19936;-78
2021/10/08 09:19:48;;;;;;;;;;;;;;;14.05;39.94;96836.97;5023499;28;19925;-79
2021/10/08 09:22:16;;;;;;;;;;;;;;;14.37;40.04;96821.81;5028100;28;19928;-79
2021/10/08 09:24:41;;;;;;;;;;;;;;;14.54;39.95;96819.06;5026369;28;19952;-79
2021/10/08 09:27:10;;;;;;;;;;;;;;;14.71;39.85;96825.19;5028251;28;19952;-79
2021/10/08 09:29:36;;;;;;;;;;;;;;;14.94;39.82;96821.75;5025823;28;19917;-77
2021/10/08 09:32:01;;;;;;;;;;;;;;;14.72;39.20;96816.13;5026549;28;20417;-77
2021/10/08 09:34:26;;;;;;;;;;;;;;;14.56;40.28;96820.56;5026416;28;19918;-77
2021/10/08 09:36:59;;;;;;;;;;;;;;;15.06;39.18;96820.31;5026053;28;20231;-77
2021/10/08 09:39:35;;;;;;;;;;;;;;;15.19;39.15;96818.91;5006336;28;19921;-79
2021/10/08 09:42:08;;;;;;;;;;;;;;;15.43;38.69;96815.22;5009408;28;19925;-77
2021/10/08 09:44:35;;;;;;;;;;;;;;;15.21;38.28;96812.38;5008525;28;20391;-77
2021/10/08 09:47:28;;;;;;;;;;;;;;;15.43;37.29;96815.22;5025665;28;19964;-77
2021/10/08 09:50:05;;;;;;;;;;;;;;;15.24;37.82;96812.00;5026083;28;20381;-77
2021/10/08 09:52:30;;;;;;;;;;;;;;;15.29;38.11;96816.81;5024802;28;20202;-77
2021/10/08 09:54:56;;;;;;;;;;;;;;;15.23;38.35;96814.88;5024084;28;19917;-78
2021/10/08 09:57:22;;;;;;;;;;;;;;;15.52;37.31;96812.47;5004654;28;19961;-77
2021/10/08 09:59:48;;;;;;;;;;;;;;;16.09;36.76;96810.28;5020649;28;20440;-77
2021/10/08 10:02:13;;;;;;;;;;;;;;;15.89;36.85;96813.50;5024632;28;20661;-77
2021/10/08 10:04:49;;;;;;;;;;;;;;;15.83;36.18;96808.84;5007573;28;19917;-77
2021/10/08 10:07:15;;;;;;;;;;;;;;;15.26;37.11;96808.31;5016553;28;19921;-77
2021/10/08 10:09:40;;;;;;;;;;;;;;;15.21;36.77;96812.38;5025373;28;20023;-77
2021/10/08 10:12:06;;;;;;;;;;;;;;;15.63;37.41;96813.94;5024393;28;19921;-77
2021/10/08 10:14:31;;;;;;;;;;;;;;;15.36;36.91;96808.88;5005552;28;19924;-77
2021/10/08 10:16:56;;;;;;;;;;;;;;;15.50;37.47;96815.31;5006230;28;19929;-79
2021/10/08 10:19:21;;;;;;;;;;;;;;;16.01;35.75;96811.19;5020884;28;19944;-77
2021/10/08 10:21:47;;;;;;;;;;;;;;;15.97;36.25;96818.78;5024358;28;19952;-77
2021/10/08 10:24:12;;;;;;;;;;;;;;;16.23;35.45;96822.06;5023692;28;20298;-77
2021/10/08 10:26:37;;;;;;;;;;;;;;;16.06;35.74;96822.25;5023848;28;19967;-77
2021/10/08 10:29:03;;;;;;;;;;;;;;;16.02;34.99;96814.72;5024119;28;19956;-77
2021/10/08 10:31:28;;;;;;;;;;;;;;;15.98;34.59;96827.69;5025280;28;19921;-76
2021/10/08 10:33:58;;;;;;;;;;;;;;;16.26;35.13;96825.19;5024033;28;19917;-76
2021/10/08 10:36:27;;;;;;;;;;;;;;;16.32;35.13;96825.50;5023950;28;19967;-76
2021/10/08 10:39:07;;;;;;;;;;;;;;;16.61;35.49;96826.50;5026096;28;19967;-76
2021/10/08 10:41:33;;;;;;;;;;;;;;;16.99;35.67;96829.03;5024183;28;19988;-76
2021/10/08 10:44:10;;;;;;;;;;;;;;;17.24;34.72;96828.69;5023864;28;19949;-77
2021/10/08 10:51:55;;;;;;;;;;;;;;;17.54;34.30;96819.66;5025663;28;19990;-77
2021/10/08 10:54:43;;;;;;;;;;;;;;;17.28;34.55;96826.47;5025401;28;19924;-76
2021/10/08 10:57:12;;;;;;;;;;;;;;;18.33;32.77;96821.50;5023796;28;20283;-77
2021/10/08 10:59:38;;;;;;;;;;;;;;;18.66;32.38;96818.19;5023431;28;19941;-77
2021/10/08 11:02:08;;;;;;;;;;;;;;;18.29;32.63;96830.00;5003676;28;20007;-77
2021/10/08 11:04:43;;;;;;;;;;;;;;;18.67;31.98;96815.28;5020253;28;19957;-77
2021/10/08 11:07:09;;;;;;;;;;;;;;;18.69;31.26;96809.69;5014139;28;20032;-77
2021/10/08 11:09:34;;;;;;;;;;;;;;;18.85;31.47;96805.81;5024911;28;20516;-77
2021/10/08 11:12:18;;;;;;;;;;;;;;;19.30;31.27;96799.09;5023413;28;19917;-78
2021/10/08 11:14:43;;;;;;;;;;;;;;;19.29;31.22;96800.13;5022676;28;20374;-77
2021/10/08 11:17:28;;;;;;;;;;;;;;;19.28;30.94;96801.97;5020459;28;19925;-77
2021/10/08 11:19:54;;;;;;;;;;;;;;;19.80;29.84;96806.81;5024013;28;19920;-77
2021/10/08 11:22:31;;;;;;;;;;;;;;;20.32;29.69;96805.28;5023038;28;20337;-68
2021/10/08 11:25:03;;;;;;;;;;;;;;;20.65;29.65;96806.25;5022790;28;19921;-68
2021/10/08 11:27:29;;;;;;;;;;;;;;;20.54;27.42;96808.56;5024176;28;20369;-79
2021/10/08 11:29:54;;;;;;;;;;;;;;;20.68;28.43;96806.69;5023391;28;20310;-78
2021/10/08 11:32:19;;;;;;;;;;;;;;;20.38;27.76;96804.44;5022281;28;19958;-78
2021/10/08 11:34:51;;;;;;;;;;;;;;;20.48;28.62;96802.13;5021810;28;19963;-78
2021/10/08 11:37:17;;;;;;;;;;;;;;;19.98;29.50;96802.66;5022874;28;19921;-78
2021/10/08 11:39:43;;;;;;;;;;;;;;;19.32;28.84;96805.97;5024322;28;20118;-78
2021/10/08 11:42:11;;;;;;;;;;;;;;;19.42;29.44;96802.84;5023596;28;20007;-69
2021/10/08 11:44:53;;;;;;;;;;;;;;;19.50;29.00;96800.97;5023071;28;19921;-76
2021/10/08 11:47:30;;;;;;;;;;;;;;;19.39;30.03;96797.03;5007456;28;19928;-77
2021/10/08 11:52:28;;;;;;;;;;;;;;;19.09;30.18;96790.09;5022064;28;20352;-77
2021/10/08 11:55:09;;;;;;;;;;;;;;;18.92;30.46;96789.63;5023384;28;19917;-77
2021/10/08 11:57:47;;;;;;;;;;;;;;;18.67;31.25;96782.09;5022565;28;19912;-79
2021/10/08 12:00:12;;;;;;;;;;;;;;;18.56;30.60;96778.91;5023540;28;19968;-78
2021/10/08 12:02:38;;;;;;;;;;;;;;;18.55;31.51;96785.34;5021125;28;20417;-79
2021/10/08 12:05:03;;;;;;;;;;;;;;;18.50;31.65;96779.72;5022722;28;20475;-78
2021/10/08 12:07:37;;;;;;;;;;;;;;;18.64;31.54;96786.03;5022449;28;20302;-79
2021/10/08 12:10:08;;;;;;;;;;;;;;;19.01;29.99;96776.81;5022410;28;20404;-79
2021/10/08 12:12:33;;;;;;;;;;;;;;;18.54;31.28;96777.44;5022183;28;20456;-78
2021/10/08 12:14:58;;;;;;;;;;;;;;;18.80;30.97;96775.94;5017830;28;19918;-78
2021/10/08 12:17:24;;;;;;;;;;;;;;;18.95;30.37;96770.34;5012938;28;20390;-78
2021/10/08 12:19:49;;;;;;;;;;;;;;;19.10;29.15;96764.75;5023806;28;20103;-79
2021/10/08 12:22:24;;;;;;;;;;;;;;;19.23;29.29;96766.66;5023420;28;20370;-77
2021/10/08 12:24:51;;;;;;;;;;;;;;;19.43;29.72;96765.88;5001385;28;20310;-78
2021/10/08 12:27:16;;;;;;;;;;;;;;;19.64;29.50;96772.13;5017042;28;20429;-77
2021/10/08 12:29:42;;;;;;;;;;;;;;;19.52;29.28;96764.66;5023537;28;20253;-78
2021/10/08 12:32:11;;;;;;;;;;;;;;;19.38;29.37;96762.97;5022608;28;20629;-78
2021/10/08 12:34:37;;;;;;;;;;;;;;;19.33;29.59;96760.88;5021797;28;20012;-78
2021/10/08 12:37:03;;;;;;;;;;;;;;;19.35;29.30;96764.22;5023153;28;20079;-77
2021/10/08 12:39:28;;;;;;;;;;;;;;;19.35;29.89;96763.38;5021324;28;20503;-78
2021/10/08 12:41:59;;;;;;;;;;;;;;;18.99;30.27;96755.41;5021266;28;20015;-78
2021/10/08 12:44:36;;;;;;;;;;;;;;;19.29;29.82;96756.94;5021160;28;19918;-78
2021/10/08 12:47:12;;;;;;;;;;;;;;;19.17;29.96;96751.31;5022959;28;19952;-78
2021/10/08 12:49:51;;;;;;;;;;;;;;;19.06;30.74;96750.88;5024904;28;19917;-79
2021/10/08 12:52:17;;;;;;;;;;;;;;;19.13;30.60;96753.56;5022359;28;20031;-79
2021/10/08 12:54:43;;;;;;;;;;;;;;;18.73;30.88;96750.78;5022581;28;19944;-79
2021/10/08 12:57:12;;;;;;;;;;;;;;;18.76;31.66;96756.59;4990830;28;19910;-78
2021/10/08 13:00:04;;;;;;;;;;;;;;;19.07;30.91;96754.41;5018162;28;19932;-79